createdAt,value
2022-08-11T00:01:19.987Z,25.29
2022-08-11T00:03:58.721Z,25.34
2022-08-11T00:06:28.990Z,25.16
2022-08-11T00:08:57.040Z,25.08
2022-08-11T00:11:33.923Z,25.01
2022-08-11T00:14:02.075Z,25.06
2022-08-11T00:16:29.684Z,24.98
2022-08-11T00:18:57.639Z,25.03
2022-08-11T00:22:01.989Z,25.00
2022-08-11T00:24:13.124Z,24.86
2022-08-11T00:26:39.661Z,24.87
2022-08-11T00:29:10.811Z,24.75
2022-08-11T00:31:38.955Z,24.77
2022-08-11T00:34:11.449Z,24.74
2022-08-11T00:36:59.909Z,24.74
2022-08-11T00:39:29.245Z,24.62
2022-08-11T00:42:23.827Z,24.71
2022-08-11T00:45:35.076Z,24.71
2022-08-11T00:48:40.152Z,24.51
2022-08-11T00:51:20.486Z,24.47
2022-08-11T00:54:02.529Z,24.44
2022-08-11T00:56:47.748Z,24.42
2022-08-11T00:59:35.064Z,24.42
2022-08-11T01:02:18.275Z,24.40
2022-08-11T01:04:57.268Z,24.39
2022-08-11T01:08:02.875Z,24.38
2022-08-11T01:11:16.995Z,24.34
2022-08-11T01:14:05.427Z,24.23
2022-08-11T01:17:25.070Z,24.23
2022-08-11T01:20:45.825Z,23.98
2022-08-11T01:23:07.521Z,24.09
2022-08-11T01:25:56.421Z,23.87
2022-08-11T01:29:13.503Z,23.84
2022-08-11T01:32:21.559Z,23.98
2022-08-11T01:35:29.322Z,23.85
2022-08-11T01:38:27.790Z,23.73
2022-08-11T01:41:24.429Z,23.68
2022-08-11T01:44:39.119Z,23.71
2022-08-11T01:47:53.076Z,23.62
2022-08-11T01:50:57.387Z,23.59
2022-08-11T01:53:35.573Z,23.53
2022-08-11T01:56:24.720Z,23.58
2022-08-11T01:59:10.598Z,23.50
2022-08-11T02:01:58.868Z,23.42
2022-08-11T02:04:34.528Z,23.27
2022-08-11T02:07:04.489Z,23.31
2022-08-11T02:09:54.416Z,23.27
2022-08-11T02:13:00.428Z,23.26
2022-08-11T02:15:36.340Z,23.13
2022-08-11T02:18:13.758Z,23.03
2022-08-11T02:21:21.118Z,23.12
2022-08-11T02:24:09.191Z,23.07
2022-08-11T02:26:47.047Z,23.02
2022-08-11T02:29:33.756Z,22.87
2022-08-11T02:32:38.235Z,22.92
2022-08-11T02:35:52.970Z,22.91
2022-08-11T02:38:31.776Z,22.75
2022-08-11T02:41:40.285Z,22.67
2022-08-11T02:44:20.785Z,22.62
2022-08-11T02:47:02.843Z,22.64
2022-08-11T02:50:05.907Z,22.60
2022-08-11T02:53:02.190Z,22.53
2022-08-11T02:55:58.278Z,22.49
2022-08-11T02:59:06.217Z,22.45
2022-08-11T03:01:45.543Z,22.40
2022-08-11T03:04:37.662Z,22.39
2022-08-11T03:07:29.048Z,22.28
2022-08-11T03:10:02.778Z,22.11
2022-08-11T03:12:55.101Z,22.10
2022-08-11T03:15:50.040Z,22.09
2022-08-11T03:18:41.231Z,22.09
2022-08-11T03:21:17.592Z,21.86
2022-08-11T03:24:13.619Z,21.94
2022-08-11T03:26:54.816Z,21.89
2022-08-11T03:29:34.203Z,21.92
2022-08-11T03:32:19.336Z,21.70
2022-08-11T03:34:48.653Z,21.79
2022-08-11T03:37:39.789Z,21.67
2022-08-11T03:40:51.932Z,21.78
2022-08-11T03:43:32.602Z,21.65
2022-08-11T03:46:12.168Z,21.55
2022-08-11T03:48:57.174Z,21.56
2022-08-11T03:51:44.798Z,21.38
2022-08-11T03:54:35.721Z,21.49
2022-08-11T03:57:14.172Z,21.44
2022-08-11T04:00:18.225Z,21.45
2022-08-11T04:03:07.888Z,21.31
2022-08-11T04:06:15.525Z,21.25
2022-08-11T04:09:23.730Z,21.29
2022-08-11T04:12:36.797Z,21.26
2022-08-11T04:15:59.684Z,21.24
2022-08-11T04:18:55.037Z,21.16
2022-08-11T04:21:59.297Z,21.15
2022-08-11T04:24:50.538Z,21.05
2022-08-11T04:27:47.920Z,21.01
2022-08-11T04:30:40.533Z,20.91
2022-08-11T04:33:19.614Z,20.84
2022-08-11T04:36:05.979Z,20.85
2022-08-11T04:38:58.770Z,20.97
2022-08-11T04:42:18.865Z,20.96
2022-08-11T04:45:11.868Z,20.80
2022-08-11T04:48:10.546Z,20.83
2022-08-11T04:51:37.970Z,20.86
2022-08-11T04:54:39.629Z,20.78
2022-08-11T04:57:54.192Z,20.84
2022-08-11T05:00:48.081Z,20.83
2022-08-11T05:03:43.038Z,20.79
2022-08-11T05:06:37.922Z,20.83
2022-08-11T05:09:28.750Z,20.79
2022-08-11T05:12:02.282Z,20.76
2022-08-11T05:15:08.034Z,20.81
2022-08-11T05:18:16.126Z,20.68
2022-08-11T05:21:07.420Z,20.78
2022-08-11T05:23:58.176Z,20.79
2022-08-11T05:26:49.294Z,20.83
2022-08-11T05:30:02.448Z,20.77
2022-08-11T05:33:01.554Z,20.82
2022-08-11T05:36:02.362Z,20.91
2022-08-11T05:38:46.037Z,20.86
2022-08-11T05:41:31.863Z,20.85
2022-08-11T05:44:22.100Z,20.73
2022-08-11T05:47:08.431Z,20.92
2022-08-11T05:49:54.402Z,20.84
2022-08-11T05:52:43.578Z,20.88
2022-08-11T05:55:33.133Z,20.85
2022-08-11T05:58:04.222Z,20.74
2022-08-11T06:00:32.140Z,20.65
2022-08-11T06:03:04.060Z,20.78
2022-08-11T06:05:43.938Z,20.89
2022-08-11T06:08:12.559Z,20.98
2022-08-11T06:10:44.196Z,20.84
2022-08-11T06:13:16.534Z,21.03
2022-08-11T06:15:48.056Z,21.05
2022-08-11T06:18:15.329Z,21.28
2022-08-11T06:20:56.562Z,21.20
2022-08-11T06:23:25.878Z,21.21
2022-08-11T06:25:56.140Z,21.28
2022-08-11T06:28:33.360Z,21.31
2022-08-11T06:31:00.548Z,21.30
2022-08-11T06:33:50.752Z,21.41
2022-08-11T06:36:29.748Z,21.30
2022-08-11T06:39:11.356Z,21.44
2022-08-11T06:41:48.839Z,21.50
2022-08-11T06:44:28.553Z,21.50
2022-08-11T06:47:00.959Z,21.49
2022-08-11T06:49:55.528Z,21.49
2022-08-11T06:52:36.375Z,21.62
2022-08-11T06:55:55.403Z,21.60
2022-08-11T06:58:23.039Z,21.62
2022-08-11T07:00:56.879Z,21.79
2022-08-11T07:03:26.091Z,21.80
2022-08-11T07:06:01.465Z,21.81
2022-08-11T07:08:58.768Z,21.87
2022-08-11T07:12:02.414Z,22.03
2022-08-11T07:14:49.950Z,22.00
2022-08-11T07:17:26.032Z,22.11
2022-08-11T07:20:17.575Z,22.13
2022-08-11T07:23:12.524Z,22.23
2022-08-11T07:26:00.499Z,22.25
2022-08-11T07:28:48.496Z,22.39
2022-08-11T07:31:21.895Z,22.44
2022-08-11T07:34:07.785Z,22.46
2022-08-11T07:36:45.980Z,22.56
2022-08-11T07:39:32.635Z,22.61
2022-08-11T07:42:04.855Z,22.67
2022-08-11T07:44:52.622Z,22.71
2022-08-11T07:47:37.725Z,22.81
2022-08-11T07:50:24.141Z,22.90
2022-08-11T07:52:52.787Z,23.00
2022-08-11T07:55:48.937Z,22.98
2022-08-11T07:58:31.694Z,23.09
2022-08-11T08:01:37.043Z,23.12
2022-08-11T08:04:24.159Z,23.15
2022-08-11T08:07:09.792Z,23.37
2022-08-11T08:09:55.324Z,23.39
2022-08-11T08:12:43.060Z,23.49
2022-08-11T08:15:33.482Z,23.50
2022-08-11T08:18:20.709Z,23.57
2022-08-11T08:20:50.464Z,23.68
2022-08-11T08:23:32.759Z,23.84
2022-08-11T08:26:02.214Z,23.88
2022-08-11T08:28:32.414Z,23.94
2022-08-11T08:31:00.720Z,23.96
2022-08-11T08:33:32.250Z,24.08
2022-08-11T08:36:12.397Z,24.10
2022-08-11T08:38:49.824Z,24.24
2022-08-11T08:41:27.481Z,24.32
2022-08-11T08:44:15.127Z,24.40
2022-08-11T08:46:49.317Z,24.47
2022-08-11T08:49:19.480Z,24.58
2022-08-11T08:52:02.000Z,24.60
2022-08-11T08:54:42.045Z,24.72
2022-08-11T08:57:09.674Z,24.82
2022-08-11T08:59:48.481Z,24.91
2022-08-11T09:02:22.065Z,24.92
2022-08-11T09:05:03.567Z,25.00
2022-08-11T09:07:38.811Z,25.05
2022-08-11T09:10:07.622Z,25.24
2022-08-11T09:12:36.388Z,25.26
2022-08-11T09:15:06.289Z,25.29
2022-08-11T09:17:46.605Z,25.38
2022-08-11T09:20:21.225Z,25.52
2022-08-11T09:26:19.385Z,25.74
2022-08-11T09:28:47.523Z,25.77
2022-08-11T09:31:15.237Z,25.88
2022-08-11T09:33:44.416Z,25.96
2022-08-11T09:36:32.224Z,26.01
2022-08-11T09:39:19.265Z,26.07
2022-08-11T09:42:01.363Z,26.20
2022-08-11T09:44:48.608Z,26.24
2022-08-11T09:47:40.377Z,26.43
2022-08-11T09:50:09.576Z,26.52
2022-08-11T09:52:48.083Z,26.62
2022-08-11T09:55:24.448Z,26.75
2022-08-11T09:58:09.784Z,26.80
2022-08-11T10:00:38.005Z,26.90
2022-08-11T10:03:08.386Z,26.92
2022-08-11T10:05:55.748Z,27.03
2022-08-11T10:08:26.688Z,27.12
2022-08-11T10:10:55.345Z,27.20
2022-08-11T10:14:12.410Z,27.39
2022-08-11T10:16:15.749Z,27.44
2022-08-11T10:18:52.197Z,27.48
2022-08-11T10:21:28.332Z,27.62
2022-08-11T10:24:17.244Z,27.74
2022-08-11T10:27:00.621Z,27.83
2022-08-11T10:29:52.116Z,28.01
2022-08-11T10:32:57.511Z,28.15
2022-08-11T10:35:29.391Z,28.27
2022-08-11T10:38:07.574Z,28.35
2022-08-11T10:40:39.147Z,28.35
2022-08-11T10:43:10.560Z,28.48
2022-08-11T10:45:59.150Z,28.48
2022-08-11T10:48:28.757Z,28.68
2022-08-11T10:51:14.723Z,28.79
2022-08-11T10:54:06.834Z,28.86
2022-08-11T10:56:58.265Z,29.03
2022-08-11T10:59:28.103Z,29.02
2022-08-11T11:01:55.425Z,29.12
2022-08-11T11:04:39.549Z,29.17
2022-08-11T11:07:13.718Z,29.30
2022-08-11T11:09:54.253Z,29.30
2022-08-11T11:12:47.065Z,29.33
2022-08-11T11:15:35.547Z,29.53
2022-08-11T11:18:07.464Z,29.68
2022-08-11T11:21:04.331Z,29.76
2022-08-11T11:24:06.059Z,29.76
2022-08-11T11:26:50.373Z,30.04
2022-08-11T11:29:50.684Z,30.01
2022-08-11T11:32:33.348Z,30.08
2022-08-11T11:35:18.019Z,30.16
2022-08-11T11:37:56.205Z,30.34
2022-08-11T11:40:32.367Z,30.32
2022-08-11T11:43:00.052Z,30.21
2022-08-11T11:45:26.835Z,30.55
2022-08-11T11:47:55.810Z,30.62
2022-08-11T11:50:36.736Z,30.63
2022-08-11T11:53:09.668Z,30.76
2022-08-11T11:55:37.003Z,30.80
2022-08-11T11:58:23.798Z,31.00
2022-08-11T12:01:12.153Z,31.08
2022-08-11T12:03:40.143Z,31.15
2022-08-11T12:06:09.314Z,31.18
2022-08-11T12:08:37.175Z,31.16
2022-08-11T12:11:25.150Z,31.20
2022-08-11T12:13:57.669Z,31.34
2022-08-11T12:16:34.410Z,31.35
2022-08-11T12:19:06.576Z,31.48
2022-08-11T12:21:35.840Z,31.63
2022-08-11T12:24:21.638Z,31.58
2022-08-11T12:27:15.007Z,31.67
2022-08-11T12:29:36.131Z,31.86
2022-08-11T12:32:08.173Z,31.82
2022-08-11T12:34:35.430Z,31.97
2022-08-11T12:37:05.594Z,32.00
2022-08-11T12:40:12.973Z,32.01
2022-08-11T12:43:04.053Z,32.10
2022-08-11T12:45:37.197Z,32.37
2022-08-11T12:48:58.747Z,32.35
2022-08-11T12:52:12.417Z,32.37
2022-08-11T12:55:02.409Z,32.20
2022-08-11T12:57:54.042Z,32.46
2022-08-11T13:00:40.430Z,32.63
2022-08-11T13:03:28.708Z,32.57
2022-08-11T13:06:00.715Z,32.71
2022-08-11T13:08:29.395Z,32.76
2022-08-11T13:11:17.082Z,32.82
2022-08-11T13:13:55.878Z,32.92
2022-08-11T13:16:30.611Z,33.02
2022-08-11T13:19:01.083Z,33.23
2022-08-11T13:21:28.986Z,33.16
2022-08-11T13:23:59.869Z,33.28
2022-08-11T13:26:48.620Z,33.15
2022-08-11T13:29:25.381Z,33.35
2022-08-11T13:31:55.998Z,33.56
2022-08-11T13:34:23.771Z,33.64
2022-08-11T13:36:52.608Z,33.56
2022-08-11T13:39:22.893Z,33.68
2022-08-11T13:41:53.395Z,33.90
2022-08-11T13:44:25.507Z,33.80
2022-08-11T13:46:57.564Z,33.82
2022-08-11T13:49:25.709Z,33.82
2022-08-11T13:51:54.102Z,33.97
2022-08-11T13:54:36.791Z,34.20
2022-08-11T13:57:08.121Z,34.03
2022-08-11T13:59:43.689Z,34.20
2022-08-11T14:02:30.854Z,34.24
2022-08-11T14:05:02.679Z,34.22
2022-08-11T14:07:39.181Z,34.21
2022-08-11T14:10:07.624Z,34.24
2022-08-11T14:13:12.212Z,34.33
2022-08-11T14:15:42.271Z,34.43
2022-08-11T14:18:16.968Z,34.42
2022-08-11T14:21:05.175Z,34.62
2022-08-11T14:23:38.683Z,34.61
2022-08-11T14:26:26.780Z,34.86
2022-08-11T14:28:57.434Z,34.61
2022-08-11T14:31:25.461Z,35.00
2022-08-11T14:33:59.368Z,34.85
2022-08-11T14:36:40.550Z,34.91
2022-08-11T14:39:13.318Z,34.73
2022-08-11T14:42:11.119Z,35.00
2022-08-11T14:45:00.531Z,34.99
2022-08-11T14:47:28.707Z,35.00
2022-08-11T14:50:09.819Z,35.20
2022-08-11T14:52:44.678Z,35.17
2022-08-11T14:55:31.522Z,35.41
2022-08-11T14:57:59.295Z,35.35
2022-08-11T15:00:26.577Z,35.18
2022-08-11T15:03:13.527Z,35.51
2022-08-11T15:05:56.813Z,35.61
2022-08-11T15:08:46.549Z,35.41
2022-08-11T15:11:33.522Z,35.55
2022-08-11T15:14:02.456Z,35.73
2022-08-11T15:16:48.611Z,35.64
2022-08-11T15:19:16.369Z,35.63
2022-08-11T15:22:01.819Z,35.84
2022-08-11T15:24:30.767Z,35.84
2022-08-11T15:27:19.350Z,35.84
2022-08-11T15:30:07.256Z,35.89
2022-08-11T15:32:53.709Z,36.10
2022-08-11T15:35:39.261Z,36.15
2022-08-11T15:38:11.612Z,36.01
2022-08-11T15:40:58.623Z,36.18
2022-08-11T15:43:47.860Z,36.13
2022-08-11T15:46:18.763Z,36.10
2022-08-11T15:48:53.896Z,36.11
2022-08-11T15:51:33.275Z,36.06
2022-08-11T15:54:08.498Z,36.19
2022-08-11T15:56:39.743Z,36.18
2022-08-11T15:59:42.036Z,36.17
2022-08-11T16:02:32.870Z,36.06
2022-08-11T16:05:02.195Z,36.17
2022-08-11T16:07:32.545Z,36.01
2022-08-11T16:10:09.636Z,36.25
2022-08-11T16:12:40.548Z,36.10
2022-08-11T16:15:29.243Z,36.37
2022-08-11T16:18:05.005Z,36.13
2022-08-11T16:20:33.589Z,36.32
2022-08-11T16:23:04.647Z,36.27
2022-08-11T16:26:30.474Z,36.48
2022-08-11T16:28:23.111Z,36.53
2022-08-11T16:30:50.968Z,36.21
2022-08-11T16:33:49.087Z,36.62
2022-08-11T16:36:27.609Z,36.47
2022-08-11T16:38:56.729Z,36.55
2022-08-11T16:41:44.277Z,36.46
2022-08-11T16:44:37.007Z,36.56
2022-08-11T16:47:06.879Z,36.50
2022-08-11T16:49:36.646Z,36.29
2022-08-11T16:52:06.061Z,36.43
2022-08-11T16:54:34.473Z,36.42
2022-08-11T16:57:23.634Z,36.35
2022-08-11T16:59:57.812Z,36.33
2022-08-11T17:02:47.401Z,36.15
2022-08-11T17:05:39.080Z,36.29
2022-08-11T17:08:55.933Z,36.35
2022-08-11T17:11:46.138Z,36.32
2022-08-11T17:14:35.129Z,36.28
2022-08-11T17:17:05.954Z,36.46
2022-08-11T17:20:43.086Z,36.45
2022-08-11T17:22:41.100Z,36.43
2022-08-11T17:25:09.783Z,36.48
2022-08-11T17:27:38.681Z,36.48
2022-08-11T17:30:07.758Z,36.06
2022-08-11T17:33:03.269Z,36.29
2022-08-11T17:35:34.650Z,36.27
2022-08-11T17:38:15.867Z,36.20
2022-08-11T17:41:22.977Z,36.12
2022-08-11T17:44:10.361Z,36.12
2022-08-11T17:47:01.028Z,35.98
2022-08-11T17:49:37.371Z,35.93
2022-08-11T17:52:24.999Z,35.74
2022-08-11T17:55:11.871Z,35.70
2022-08-11T17:58:00.249Z,35.55
2022-08-11T18:00:27.707Z,35.40
2022-08-11T18:03:14.507Z,35.30
2022-08-11T18:05:44.369Z,35.07
2022-08-11T18:08:31.755Z,35.20
2022-08-11T18:12:06.080Z,34.98
2022-08-11T18:14:27.510Z,34.78
2022-08-11T18:17:13.016Z,34.66
2022-08-11T18:19:58.364Z,34.58
2022-08-11T18:22:48.248Z,34.44
2022-08-11T18:25:43.238Z,34.53
2022-08-11T18:28:34.048Z,34.43
2022-08-11T18:31:20.943Z,34.24
2022-08-11T18:34:11.035Z,34.27
2022-08-11T18:37:19.725Z,34.31
2022-08-11T18:40:16.327Z,34.04
2022-08-11T18:43:05.680Z,34.11
2022-08-11T18:46:05.276Z,33.91
2022-08-11T18:48:55.141Z,33.98
2022-08-11T18:51:42.409Z,33.79
2022-08-11T18:54:29.871Z,33.61
2022-08-11T18:57:18.240Z,33.45
2022-08-11T19:00:05.329Z,33.51
2022-08-11T19:02:57.771Z,33.47
2022-08-11T19:06:05.307Z,33.40
2022-08-11T19:08:55.989Z,33.24
2022-08-11T19:11:43.881Z,32.96
2022-08-11T19:14:30.895Z,33.05
2022-08-11T19:17:43.995Z,32.84
2022-08-11T19:20:31.927Z,32.94
2022-08-11T19:23:18.273Z,32.87
2022-08-11T19:26:05.615Z,32.79
2022-08-11T19:28:53.073Z,32.59
2022-08-11T19:31:43.824Z,32.41
2022-08-11T19:34:34.477Z,32.42
2022-08-11T19:37:24.326Z,32.33
2022-08-11T19:40:16.793Z,32.29
2022-08-11T19:43:03.535Z,32.11
2022-08-11T19:45:52.589Z,32.06
2022-08-11T19:48:43.732Z,31.90
2022-08-11T19:51:29.616Z,31.90
2022-08-11T19:54:16.431Z,31.80
2022-08-11T19:57:03.849Z,31.67
2022-08-11T19:59:50.680Z,31.58
2022-08-11T20:02:35.931Z,31.50
2022-08-11T20:05:21.603Z,31.56
2022-08-11T20:08:07.909Z,31.36
2022-08-11T20:10:54.787Z,31.35
2022-08-11T20:13:43.426Z,31.16
2022-08-11T20:16:31.005Z,30.95
2022-08-11T20:19:17.856Z,31.17
2022-08-11T20:22:08.208Z,31.16
2022-08-11T20:24:56.751Z,31.08
2022-08-11T20:27:43.039Z,31.05
2022-08-11T20:30:28.922Z,30.90
2022-08-11T20:33:13.851Z,30.93
2022-08-11T20:35:58.958Z,30.68
2022-08-11T20:38:48.802Z,30.68
2022-08-11T20:41:58.686Z,30.55
2022-08-11T20:44:42.169Z,30.57
2022-08-11T20:47:27.492Z,30.51
2022-08-11T20:50:19.289Z,30.48
2022-08-11T20:53:06.082Z,30.32
2022-08-11T20:55:53.778Z,30.38
2022-08-11T21:01:47.235Z,30.13
2022-08-11T21:04:37.508Z,30.22
2022-08-11T21:07:41.428Z,30.05
2022-08-11T21:10:29.118Z,29.87
2022-08-11T21:13:24.252Z,29.88
2022-08-11T21:16:18.351Z,29.87
2022-08-11T21:19:18.796Z,29.77
2022-08-11T21:22:27.852Z,29.67
2022-08-11T21:25:15.999Z,29.51
2022-08-11T21:28:02.737Z,29.63
2022-08-11T21:30:49.653Z,29.58
2022-08-11T21:33:35.588Z,29.51
2022-08-11T21:36:21.221Z,29.30
2022-08-11T21:39:08.076Z,29.39
2022-08-11T21:41:53.521Z,29.28
2022-08-11T21:44:39.847Z,29.13
2022-08-11T21:47:43.721Z,29.29
2022-08-11T21:50:29.679Z,29.19
2022-08-11T21:53:16.465Z,29.16
2022-08-11T21:56:03.308Z,29.11
2022-08-11T21:58:49.804Z,29.06
2022-08-11T22:01:36.810Z,28.96
2022-08-11T22:04:23.552Z,28.86
2022-08-11T22:07:09.931Z,28.87
2022-08-11T22:09:55.821Z,28.90
2022-08-11T22:12:44.891Z,28.86
2022-08-11T22:15:31.852Z,28.86
2022-08-11T22:18:19.205Z,28.66
2022-08-11T22:21:04.616Z,28.40
2022-08-11T22:23:52.479Z,28.56
2022-08-11T22:26:39.592Z,28.44
2022-08-11T22:29:50.826Z,28.49
2022-08-11T22:32:32.340Z,28.48
2022-08-11T22:35:19.341Z,28.35
2022-08-11T22:38:05.663Z,28.24
2022-08-11T22:40:52.000Z,28.20
2022-08-11T22:43:37.772Z,28.25
2022-08-11T22:46:23.611Z,28.21
2022-08-11T22:49:10.025Z,28.01
2022-08-11T22:51:57.496Z,27.94
2022-08-11T22:54:43.955Z,27.94
2022-08-11T22:57:29.304Z,28.08
2022-08-11T23:00:16.916Z,27.97
2022-08-11T23:03:02.645Z,27.92
2022-08-11T23:05:48.247Z,27.91
2022-08-11T23:08:34.415Z,27.79
2022-08-11T23:11:20.323Z,27.73
2022-08-11T23:14:06.395Z,27.59
2022-08-11T23:16:51.731Z,27.52
2022-08-11T23:20:08.702Z,27.46
2022-08-11T23:22:50.253Z,27.32
2022-08-11T23:25:36.487Z,27.25
2022-08-11T23:28:24.431Z,27.19
2022-08-11T23:31:12.286Z,27.21
2022-08-11T23:34:00.662Z,27.08
2022-08-11T23:36:47.422Z,26.99
2022-08-11T23:39:34.439Z,26.88
2022-08-11T23:42:20.681Z,26.80
2022-08-11T23:45:07.265Z,26.87
2022-08-11T23:47:56.955Z,26.74
2022-08-11T23:50:43.888Z,26.72
2022-08-11T23:53:31.328Z,26.75
2022-08-11T23:56:17.752Z,26.64
2022-08-11T23:59:09.183Z,26.48
